createdAt,value
2022-08-08T00:01:08.209Z,0.67
2022-08-08T00:03:48.115Z,0.70
2022-08-08T00:06:28.295Z,0.60
2022-08-08T00:09:07.525Z,0.57
2022-08-08T00:12:06.877Z,0.70
2022-08-08T00:14:57.096Z,0.60
2022-08-08T00:18:02.605Z,0.60
2022-08-08T00:20:44.435Z,0.73
2022-08-08T00:23:17.623Z,0.70
2022-08-08T00:25:51.324Z,0.60
2022-08-08T00:28:34.078Z,0.57
2022-08-08T00:32:20.362Z,0.50
2022-08-08T00:34:20.282Z,0.50
2022-08-08T00:37:03.731Z,0.50
2022-08-08T00:41:10.392Z,0.70
2022-08-08T00:43:11.891Z,0.47
2022-08-08T00:46:02.145Z,0.53
2022-08-08T00:49:00.864Z,0.60
2022-08-08T00:52:01.190Z,0.60
2022-08-08T00:55:03.216Z,0.50
2022-08-08T00:58:17.722Z,0.60
2022-08-08T01:01:03.450Z,0.50
2022-08-08T01:04:09.555Z,0.50
2022-08-08T01:07:15.157Z,0.67
2022-08-08T01:10:34.322Z,0.70
2022-08-08T01:13:44.445Z,0.67
2022-08-08T01:16:50.664Z,0.57
2022-08-08T01:20:02.789Z,0.90
2022-08-08T01:23:08.357Z,0.67
2022-08-08T01:26:26.935Z,0.70
2022-08-08T01:29:23.912Z,0.80
2022-08-08T01:32:30.810Z,0.63
2022-08-08T01:35:31.069Z,0.67
2022-08-08T01:38:28.781Z,0.73
2022-08-08T01:41:06.602Z,0.73
2022-08-08T01:43:50.920Z,0.80
2022-08-08T01:46:47.302Z,0.77
2022-08-08T01:49:43.758Z,0.70
2022-08-08T01:54:01.933Z,0.73
2022-08-08T01:56:26.747Z,0.77
2022-08-08T01:58:38.739Z,0.70
2022-08-08T02:01:25.339Z,0.80
2022-08-08T02:04:07.017Z,0.80
2022-08-08T02:06:57.117Z,1.03
2022-08-08T02:10:04.357Z,0.80
2022-08-08T02:12:43.797Z,0.80
2022-08-08T02:15:18.541Z,1.20
2022-08-08T02:18:01.327Z,1.00
2022-08-08T02:21:01.379Z,1.10
2022-08-08T02:23:37.026Z,0.97
2022-08-08T02:26:15.729Z,0.90
2022-08-08T02:28:59.657Z,0.87
2022-08-08T02:31:58.479Z,0.97
2022-08-08T02:35:06.399Z,0.90
2022-08-08T02:37:56.681Z,0.83
2022-08-08T02:40:39.095Z,0.80
2022-08-08T02:44:34.969Z,0.80
2022-08-08T02:46:52.855Z,0.90
2022-08-08T02:50:01.201Z,0.80
2022-08-08T02:52:46.061Z,0.70
2022-08-08T02:56:01.569Z,1.20
2022-08-08T02:59:36.849Z,0.90
2022-08-08T03:02:50.367Z,0.67
2022-08-08T03:05:45.175Z,0.70
2022-08-08T03:08:54.954Z,0.80
2022-08-08T03:12:01.895Z,0.70
2022-08-08T03:16:01.856Z,0.97
2022-08-08T03:17:59.788Z,1.00
2022-08-08T03:20:51.582Z,1.10
2022-08-08T03:23:39.598Z,0.80
2022-08-08T03:26:08.980Z,0.90
2022-08-08T03:28:44.859Z,1.07
2022-08-08T03:31:38.080Z,0.90
2022-08-08T03:34:20.591Z,1.00
2022-08-08T03:36:50.185Z,0.90
2022-08-08T03:39:20.936Z,0.93
2022-08-08T03:42:26.797Z,1.03
2022-08-08T03:44:41.145Z,0.80
2022-08-08T03:47:22.383Z,1.10
2022-08-08T03:50:00.464Z,1.00
2022-08-08T03:52:35.396Z,1.03
2022-08-08T03:55:55.229Z,0.90
2022-08-08T03:58:30.032Z,1.00
2022-08-08T04:00:56.496Z,1.10
2022-08-08T04:03:58.044Z,0.90
2022-08-08T04:06:24.274Z,0.90
2022-08-08T04:09:08.763Z,0.90
2022-08-08T04:11:57.742Z,1.00
2022-08-08T04:14:50.780Z,0.70
2022-08-08T04:17:40.815Z,0.97
2022-08-08T04:20:09.479Z,0.80
2022-08-08T04:22:38.423Z,1.10
2022-08-08T04:25:09.082Z,0.80
2022-08-08T04:28:35.461Z,0.90
2022-08-08T04:30:36.721Z,0.80
2022-08-08T04:33:15.851Z,0.70
2022-08-08T04:35:50.593Z,0.90
2022-08-08T04:38:21.286Z,0.80
2022-08-08T04:40:53.644Z,0.70
2022-08-08T04:43:31.578Z,0.90
2022-08-08T04:46:16.422Z,0.80
2022-08-08T04:48:47.233Z,0.80
2022-08-08T04:51:17.383Z,0.50
2022-08-08T04:54:39.719Z,0.90
2022-08-08T04:56:44.206Z,0.70
2022-08-08T04:59:15.652Z,0.70
2022-08-08T05:01:47.875Z,0.70
2022-08-08T05:04:16.859Z,0.60
2022-08-08T05:06:47.399Z,0.60
2022-08-08T05:09:20.905Z,0.57
2022-08-08T05:11:57.289Z,0.57
2022-08-08T05:14:29.957Z,0.60
2022-08-08T05:17:02.723Z,0.60
2022-08-08T05:20:09.939Z,0.60
2022-08-08T05:22:33.498Z,0.90
2022-08-08T05:25:03.038Z,0.60
2022-08-08T05:27:33.016Z,0.60
2022-08-08T05:30:04.131Z,0.70
2022-08-08T05:32:39.822Z,0.83
2022-08-08T05:35:14.452Z,0.70
2022-08-08T05:37:53.061Z,0.80
2022-08-08T05:40:34.613Z,1.00
2022-08-08T05:43:38.642Z,1.03
2022-08-08T05:46:07.854Z,1.00
2022-08-08T05:48:41.839Z,0.90
2022-08-08T05:51:15.664Z,0.87
2022-08-08T05:54:24.028Z,1.10
2022-08-08T05:56:42.650Z,0.70
2022-08-08T05:59:59.053Z,0.90
2022-08-08T06:02:40.878Z,0.70
2022-08-08T06:05:34.121Z,0.80
2022-08-08T06:08:09.667Z,0.97
2022-08-08T06:10:41.484Z,0.80
2022-08-08T06:13:12.492Z,0.80
2022-08-08T06:15:50.928Z,1.40
2022-08-08T06:18:40.513Z,0.90
2022-08-08T06:21:11.759Z,0.80
2022-08-08T06:24:02.448Z,0.70
2022-08-08T06:26:45.361Z,0.90
2022-08-08T06:30:00.551Z,1.20
2022-08-08T06:32:18.784Z,1.27
2022-08-08T06:35:12.005Z,1.10
2022-08-08T06:37:55.949Z,1.20
2022-08-08T06:40:32.123Z,1.00
2022-08-08T06:43:05.879Z,1.30
2022-08-08T06:45:44.806Z,1.30
2022-08-08T06:48:17.520Z,1.30
2022-08-08T06:50:47.518Z,1.40
2022-08-08T06:53:21.998Z,1.30
2022-08-08T06:56:02.534Z,1.23
2022-08-08T06:58:34.838Z,1.30
2022-08-08T07:01:52.201Z,1.50
2022-08-08T07:04:38.923Z,1.20
2022-08-08T07:07:00.577Z,1.07
2022-08-08T07:09:56.328Z,1.20
2022-08-08T07:12:38.103Z,1.40
2022-08-08T07:15:23.001Z,1.37
2022-08-08T07:18:36.910Z,1.07
2022-08-08T07:21:02.067Z,1.17
2022-08-08T07:24:01.818Z,1.50
2022-08-08T07:26:42.000Z,1.40
2022-08-08T07:29:58.892Z,1.20
2022-08-08T07:32:00.693Z,1.30
2022-08-08T07:34:32.384Z,1.30
2022-08-08T07:37:12.078Z,1.40
2022-08-08T07:39:57.857Z,1.20
2022-08-08T07:42:34.528Z,1.30
2022-08-08T07:45:06.866Z,1.30
2022-08-08T07:47:39.801Z,1.40
2022-08-08T07:50:16.785Z,1.10
2022-08-08T07:52:57.424Z,1.23
2022-08-08T07:55:29.878Z,1.40
2022-08-08T07:58:14.636Z,1.27
2022-08-08T08:00:48.803Z,1.40
2022-08-08T08:03:28.267Z,1.07
2022-08-08T08:05:59.926Z,1.40
2022-08-08T08:08:50.250Z,1.10
2022-08-08T08:11:33.904Z,0.97
2022-08-08T08:14:19.517Z,0.90
2022-08-08T08:16:50.746Z,1.00
2022-08-08T08:19:23.140Z,1.20
2022-08-08T08:21:57.202Z,1.20
2022-08-08T08:24:39.757Z,1.10
2022-08-08T08:27:12.836Z,1.23
2022-08-08T08:29:43.945Z,1.00
2022-08-08T08:32:31.924Z,1.10
2022-08-08T08:35:08.317Z,0.93
2022-08-08T08:37:53.019Z,0.97
2022-08-08T08:40:27.412Z,1.00
2022-08-08T08:42:59.419Z,1.30
2022-08-08T08:45:29.414Z,1.07
2022-08-08T08:48:01.607Z,0.80
2022-08-08T08:50:35.475Z,0.83
2022-08-08T08:53:55.472Z,0.93
2022-08-08T08:56:11.689Z,0.90
2022-08-08T08:58:47.019Z,0.70
2022-08-08T09:01:35.428Z,0.90
2022-08-08T09:04:31.091Z,0.70
2022-08-08T09:07:00.372Z,0.67
2022-08-08T09:09:39.847Z,0.70
2022-08-08T09:12:23.577Z,0.47
2022-08-08T09:14:56.760Z,0.70
2022-08-08T09:17:41.237Z,0.75
2022-08-08T09:21:58.842Z,0.80
2022-08-08T09:23:10.477Z,0.80
2022-08-08T09:25:58.449Z,0.90
2022-08-08T09:28:38.796Z,0.88
2022-08-08T09:31:16.707Z,1.20
2022-08-08T09:34:14.744Z,1.10
2022-08-08T09:36:51.440Z,1.00
2022-08-08T09:39:43.826Z,1.30
2022-08-08T09:42:22.131Z,1.08
2022-08-08T09:45:08.210Z,1.20
2022-08-08T09:48:04.315Z,0.75
2022-08-08T09:50:43.931Z,0.80
2022-08-08T09:53:32.873Z,0.80
2022-08-08T09:56:14.405Z,1.25
2022-08-08T09:58:58.505Z,1.05
2022-08-08T10:01:58.144Z,0.77
2022-08-08T10:04:39.818Z,0.93
2022-08-08T10:07:13.883Z,0.77
2022-08-08T10:10:00.119Z,0.77
2022-08-08T10:12:37.511Z,0.75
2022-08-08T10:15:18.072Z,0.70
2022-08-08T10:18:05.958Z,0.68
2022-08-08T10:20:50.954Z,0.90
2022-08-08T10:23:41.119Z,0.80
2022-08-08T10:26:31.001Z,0.95
2022-08-08T10:29:06.280Z,0.82
2022-08-08T10:31:53.390Z,0.90
2022-08-08T10:34:24.480Z,1.00
2022-08-08T10:36:59.708Z,0.82
2022-08-08T10:39:43.182Z,0.80
2022-08-08T10:42:20.925Z,0.90
2022-08-08T10:44:49.442Z,1.10
2022-08-08T10:47:21.169Z,1.15
2022-08-08T10:50:01.838Z,0.90
2022-08-08T10:52:34.236Z,0.70
2022-08-08T10:55:06.165Z,0.90
2022-08-08T10:57:49.670Z,0.80
2022-08-08T11:00:22.739Z,0.90
2022-08-08T11:02:53.869Z,0.80
2022-08-08T11:05:23.064Z,0.65
2022-08-08T11:08:31.708Z,0.73
2022-08-08T11:10:42.097Z,0.57
2022-08-08T11:13:28.733Z,0.68
2022-08-08T11:16:00.589Z,0.63
2022-08-08T11:18:30.761Z,0.80
2022-08-08T11:21:08.994Z,0.80
2022-08-08T11:23:43.560Z,0.70
2022-08-08T11:26:18.814Z,0.60
2022-08-08T11:28:50.246Z,0.70
2022-08-08T11:31:21.082Z,0.70
2022-08-08T11:34:02.962Z,0.90
2022-08-08T11:36:45.358Z,0.90
2022-08-08T11:39:20.752Z,0.88
2022-08-08T11:41:50.907Z,1.00
2022-08-08T11:44:28.685Z,0.80
2022-08-08T11:46:57.935Z,1.08
2022-08-08T11:49:27.713Z,0.88
2022-08-08T11:51:56.535Z,0.90
2022-08-08T11:54:34.346Z,0.70
2022-08-08T11:57:13.978Z,0.80
2022-08-08T12:00:00.304Z,1.20
2022-08-08T12:02:47.902Z,1.10
2022-08-08T12:05:17.244Z,0.93
2022-08-08T12:07:51.431Z,1.00
2022-08-08T12:10:24.650Z,0.95
2022-08-08T12:13:02.470Z,0.80
2022-08-08T12:15:42.832Z,0.90
2022-08-08T12:18:20.579Z,0.88
2022-08-08T12:20:49.599Z,0.70
2022-08-08T12:23:39.917Z,0.77
2022-08-08T12:26:17.369Z,0.80
2022-08-08T12:28:56.910Z,0.80
2022-08-08T12:31:38.851Z,0.52
2022-08-08T12:34:14.471Z,0.55
2022-08-08T12:36:49.351Z,0.70
2022-08-08T12:40:01.189Z,0.60
2022-08-08T12:42:20.945Z,0.70
2022-08-08T12:44:50.389Z,0.80
2022-08-08T12:47:57.991Z,0.60
2022-08-08T12:50:16.466Z,1.00
2022-08-08T12:52:54.473Z,0.93
2022-08-08T12:55:29.198Z,0.60
2022-08-08T12:58:15.402Z,0.82
2022-08-08T13:00:44.013Z,0.70
2022-08-08T13:03:23.593Z,0.60
2022-08-08T13:06:03.932Z,0.52
2022-08-08T13:08:53.248Z,0.70
2022-08-08T13:11:28.760Z,0.60
2022-08-08T13:14:15.942Z,0.52
2022-08-08T13:16:49.005Z,0.60
2022-08-08T13:19:20.152Z,0.50
2022-08-08T13:21:55.677Z,0.85
2022-08-08T13:24:42.266Z,0.73
2022-08-08T13:27:17.660Z,0.90
2022-08-08T13:29:52.916Z,0.50
2022-08-08T13:32:23.548Z,0.63
2022-08-08T13:34:56.466Z,0.70
2022-08-08T13:37:28.223Z,0.60
2022-08-08T13:40:18.053Z,0.60
2022-08-08T13:42:56.360Z,0.80
2022-08-08T13:45:27.314Z,1.02
2022-08-08T13:47:58.823Z,1.13
2022-08-08T13:50:36.754Z,1.00
2022-08-08T13:53:25.163Z,1.13
2022-08-08T13:56:02.025Z,1.15
2022-08-08T13:58:30.536Z,1.20
2022-08-08T14:00:59.859Z,1.00
2022-08-08T14:03:47.233Z,1.02
2022-08-08T14:06:32.583Z,0.90
2022-08-08T14:09:24.610Z,1.00
2022-08-08T14:11:50.546Z,0.73
2022-08-08T14:14:21.094Z,0.80
2022-08-08T14:17:00.512Z,1.05
2022-08-08T14:19:55.707Z,1.05
2022-08-08T14:22:24.464Z,0.80
2022-08-08T14:24:55.678Z,0.73
2022-08-08T14:27:29.457Z,0.85
2022-08-08T14:30:03.424Z,0.77
2022-08-08T14:32:52.781Z,1.20
2022-08-08T14:35:23.138Z,0.80
2022-08-08T14:37:57.379Z,0.95
2022-08-08T14:40:31.180Z,0.77
2022-08-08T14:42:59.613Z,0.93
2022-08-08T14:45:33.344Z,1.10
2022-08-08T14:48:34.421Z,0.93
2022-08-08T14:51:07.793Z,0.90
2022-08-08T14:53:55.117Z,0.90
2022-08-08T14:56:24.840Z,0.80
2022-08-08T14:58:54.308Z,0.90
2022-08-08T15:01:27.854Z,0.80
2022-08-08T15:04:09.574Z,1.00
2022-08-08T15:06:37.667Z,1.00
2022-08-08T15:09:07.198Z,0.85
2022-08-08T15:11:39.375Z,0.70
2022-08-08T15:14:14.505Z,0.80
2022-08-08T15:16:44.425Z,0.80
2022-08-08T15:19:14.965Z,1.02
2022-08-08T15:21:44.758Z,1.00
2022-08-08T15:24:14.287Z,0.90
2022-08-08T15:26:52.902Z,1.00
2022-08-08T15:29:22.440Z,0.90
2022-08-08T15:32:03.973Z,1.00
2022-08-08T15:34:42.162Z,0.90
2022-08-08T15:37:12.892Z,0.80
2022-08-08T15:39:41.219Z,1.00
2022-08-08T15:42:13.122Z,0.90
2022-08-08T15:44:46.419Z,0.70
2022-08-08T15:47:15.922Z,0.70
2022-08-08T15:49:49.340Z,0.75
2022-08-08T15:52:20.795Z,0.57
2022-08-08T15:54:51.666Z,0.80
2022-08-08T15:57:21.748Z,0.73
2022-08-08T16:00:25.555Z,0.88
2022-08-08T16:02:43.888Z,0.80
2022-08-08T16:05:21.182Z,0.80
2022-08-08T16:07:52.612Z,0.80
2022-08-08T16:13:15.033Z,0.52
2022-08-08T16:13:32.276Z,0.85
2022-08-08T16:16:03.349Z,0.73
2022-08-08T16:18:37.802Z,0.80
2022-08-08T16:21:14.770Z,0.80
2022-08-08T16:23:55.412Z,1.00
2022-08-08T16:26:34.408Z,0.88
2022-08-08T16:29:09.322Z,0.73
2022-08-08T16:31:42.122Z,0.80
2022-08-08T16:34:18.561Z,0.77
2022-08-08T16:36:50.313Z,0.65
2022-08-08T16:39:48.928Z,0.90
2022-08-08T16:42:15.639Z,0.70
2022-08-08T16:44:47.483Z,0.75
2022-08-08T16:47:39.881Z,0.90
2022-08-08T16:50:14.532Z,0.70
2022-08-08T16:55:03.982Z,0.80
2022-08-08T16:55:55.820Z,0.63
2022-08-08T16:58:25.502Z,0.80
2022-08-08T17:00:54.549Z,0.70
2022-08-08T17:03:25.239Z,0.55
2022-08-08T17:06:35.463Z,0.70
2022-08-08T17:09:00.885Z,0.68
2022-08-08T17:11:39.430Z,0.60
2022-08-08T17:14:19.312Z,0.80
2022-08-08T17:16:57.575Z,0.70
2022-08-08T17:19:29.000Z,0.80
2022-08-08T17:21:57.894Z,0.65
2022-08-08T17:24:32.614Z,0.70
2022-08-08T17:27:03.025Z,0.80
2022-08-08T17:29:36.440Z,0.70
2022-08-08T17:32:11.568Z,0.82
2022-08-08T17:35:14.393Z,0.65
2022-08-08T17:37:28.054Z,0.90
2022-08-08T17:40:10.716Z,0.70
2022-08-08T17:42:40.864Z,0.80
2022-08-08T17:45:14.320Z,0.80
2022-08-08T17:47:51.259Z,0.80
2022-08-08T17:50:19.934Z,0.77
2022-08-08T17:52:48.039Z,0.80
2022-08-08T17:56:03.639Z,0.90
2022-08-08T17:58:05.343Z,0.85
2022-08-08T18:00:33.416Z,0.80
2022-08-08T18:03:13.493Z,0.88
2022-08-08T18:05:44.062Z,0.90
2022-08-08T18:08:24.484Z,0.70
2022-08-08T18:11:11.621Z,0.70
2022-08-08T18:13:44.159Z,0.80
2022-08-08T18:16:16.957Z,0.80
2022-08-08T18:18:52.640Z,0.70
2022-08-08T18:21:34.694Z,0.77
2022-08-08T18:24:17.594Z,0.80
2022-08-08T18:26:53.942Z,0.70
2022-08-08T18:29:29.413Z,0.77
2022-08-08T18:32:03.760Z,0.80
2022-08-08T18:34:33.326Z,0.82
2022-08-08T18:37:04.890Z,0.95
2022-08-08T18:39:36.314Z,0.90
2022-08-08T18:42:13.853Z,1.00
2022-08-08T18:44:54.992Z,0.82
2022-08-08T18:47:24.844Z,0.70
2022-08-08T18:49:58.983Z,0.70
2022-08-08T18:52:30.334Z,0.90
2022-08-08T18:55:09.627Z,1.00
2022-08-08T18:57:43.389Z,0.73
2022-08-08T19:00:16.507Z,0.77
2022-08-08T19:02:55.459Z,0.90
2022-08-08T19:05:34.503Z,0.93
2022-08-08T19:08:25.016Z,0.98
2022-08-08T19:10:58.587Z,0.90
2022-08-08T19:13:53.417Z,0.95
2022-08-08T19:16:19.434Z,0.70
2022-08-08T19:18:52.896Z,0.85
2022-08-08T19:21:30.676Z,1.00
2022-08-08T19:24:01.369Z,1.00
2022-08-08T19:26:34.359Z,0.90
2022-08-08T19:29:04.150Z,1.10
2022-08-08T19:31:35.468Z,1.02
2022-08-08T19:34:36.428Z,1.10
2022-08-08T19:36:55.457Z,0.93
2022-08-08T19:39:30.909Z,1.00
2022-08-08T19:42:05.347Z,1.10
2022-08-08T19:44:45.482Z,0.85
2022-08-08T19:47:16.496Z,0.73
2022-08-08T19:50:00.418Z,1.00
2022-08-08T19:52:35.031Z,0.88
2022-08-08T19:55:05.110Z,0.70
2022-08-08T19:57:35.602Z,0.95
2022-08-08T20:00:11.351Z,0.93
2022-08-08T20:02:55.274Z,1.00
2022-08-08T20:06:14.229Z,0.77
2022-08-08T20:08:37.513Z,0.90
2022-08-08T20:11:00.094Z,0.80
2022-08-08T20:14:34.928Z,0.80
2022-08-08T20:16:18.050Z,1.00
2022-08-08T20:18:52.965Z,0.80
2022-08-08T20:21:25.098Z,0.73
2022-08-08T20:23:54.202Z,0.95
2022-08-08T20:26:27.626Z,1.02
2022-08-08T20:29:01.552Z,1.20
2022-08-08T20:32:02.755Z,1.30
2022-08-08T20:34:28.794Z,1.10
2022-08-08T20:36:58.857Z,0.90
2022-08-08T20:39:39.055Z,1.08
2022-08-08T20:42:15.113Z,1.00
2022-08-08T20:44:43.522Z,1.20
2022-08-08T20:47:23.007Z,0.90
2022-08-08T20:49:54.555Z,1.02
2022-08-08T20:52:28.740Z,1.02
2022-08-08T20:54:57.123Z,1.13
2022-08-08T20:57:26.937Z,1.00
2022-08-08T20:59:56.127Z,0.98
2022-08-08T21:02:26.610Z,0.90
2022-08-08T21:04:57.328Z,0.98
2022-08-08T21:07:46.915Z,0.90
2022-08-08T21:10:16.127Z,1.00
2022-08-08T21:12:44.684Z,1.00
2022-08-08T21:15:16.271Z,0.90
2022-08-08T21:18:04.017Z,0.90
2022-08-08T21:20:34.065Z,1.10
2022-08-08T21:23:02.998Z,0.90
2022-08-08T21:25:32.877Z,1.05
2022-08-08T21:28:09.702Z,1.00
2022-08-08T21:30:49.804Z,0.90
2022-08-08T21:33:21.715Z,1.00
2022-08-08T21:36:18.728Z,1.05
2022-08-08T21:38:37.580Z,0.80
2022-08-08T21:41:05.572Z,0.85
2022-08-08T21:43:34.971Z,0.82
2022-08-08T21:48:21.656Z,0.90
2022-08-08T21:48:55.169Z,0.90
2022-08-08T21:54:17.781Z,1.00
2022-08-08T21:54:34.992Z,0.90
2022-08-08T21:57:03.115Z,1.17
2022-08-08T22:00:01.904Z,1.20
2022-08-08T22:02:22.927Z,1.10
2022-08-08T22:04:56.133Z,1.10
2022-08-08T22:07:40.057Z,1.03
2022-08-08T22:10:09.936Z,1.20
2022-08-08T22:12:47.230Z,1.27
2022-08-08T22:15:15.085Z,0.93
2022-08-08T22:17:45.435Z,1.05
2022-08-08T22:20:23.443Z,1.10
2022-08-08T22:22:52.586Z,1.20
2022-08-08T22:25:25.689Z,0.93
2022-08-08T22:28:02.830Z,1.07
2022-08-08T22:30:33.444Z,1.10
2022-08-08T22:33:01.760Z,0.90
2022-08-08T22:36:04.413Z,0.90
2022-08-08T22:38:19.855Z,1.10
2022-08-08T22:40:49.766Z,1.00
2022-08-08T22:43:18.346Z,0.98
2022-08-08T22:45:46.625Z,1.10
2022-08-08T22:48:21.606Z,1.07
2022-08-08T22:50:51.783Z,1.00
2022-08-08T22:54:29.405Z,1.00
2022-08-08T22:56:07.914Z,0.87
2022-08-08T22:58:35.823Z,1.15
2022-08-08T23:01:16.804Z,1.20
2022-08-08T23:03:56.399Z,1.23
2022-08-08T23:06:26.662Z,1.00
2022-08-08T23:08:58.919Z,1.13
2022-08-08T23:12:18.018Z,1.10
2022-08-08T23:14:17.834Z,0.80
2022-08-08T23:16:57.712Z,1.10
2022-08-08T23:19:30.572Z,1.10
2022-08-08T23:22:04.616Z,1.10
2022-08-08T23:24:36.808Z,1.00
2022-08-08T23:27:10.227Z,1.10
2022-08-08T23:29:38.616Z,1.00
2022-08-08T23:32:10.284Z,1.03
2022-08-08T23:34:39.401Z,0.87
2022-08-08T23:37:24.363Z,1.10
2022-08-08T23:39:55.607Z,0.90
2022-08-08T23:42:25.879Z,0.90
2022-08-08T23:44:55.570Z,0.87
2022-08-08T23:48:59.777Z,0.90
2022-08-08T23:50:29.796Z,1.00
2022-08-08T23:53:03.659Z,0.97
2022-08-08T23:55:33.381Z,0.90
2022-08-08T23:58:09.844Z,0.90
